sensor_id;sensor_type;location;lat;lon;timestamp;P1;durP1;ratioP1;P2;durP2;ratioP2
58306;SDS011;44116;50.884;4.768;2023-05-10T00:00:25;10.6;;;5.9;;
58306;SDS011;44116;50.884;4.768;2023-05-10T00:02:25;9.4;;;5.2;;
58306;SDS011;44116;50.884;4.768;2023-05-10T00:04:25;10.8;;;5.4;;
58306;SDS011;44116;50.884;4.768;2023-05-10T00:06:25;8.9;;;5.3;;
58306;SDS011;44116;50.884;4.768;2023-05-10T00:08:24;10.9;;;5.9;;
58306;SDS011;44116;50.884;4.768;2023-05-10T00:10:24;9.9;;;5.2;;
58306;SDS011;44116;50.884;4.768;2023-05-10T00:12:24;10.8;;;5.1;;
58306;SDS011;44116;50.884;4.768;2023-05-10T00:14:24;8.2;;;5.2;;
58306;SDS011;44116;50.884;4.768;2023-05-10T00:18:24;12.7;;;5.3;;
58306;SDS011;44116;50.884;4.768;2023-05-10T00:20:23;10.8;;;5.4;;
58306;SDS011;44116;50.884;4.768;2023-05-10T00:22:23;12.1;;;5.8;;
58306;SDS011;44116;50.884;4.768;2023-05-10T00:24:23;10.6;;;5.6;;
58306;SDS011;44116;50.884;4.768;2023-05-10T00:26:22;10.1;;;5.7;;
58306;SDS011;44116;50.884;4.768;2023-05-10T00:28:22;10.0;;;5.8;;
58306;SDS011;44116;50.884;4.768;2023-05-10T00:30:22;11.5;;;5.7;;
58306;SDS011;44116;50.884;4.768;2023-05-10T00:32:22;11.0;;;6.0;;
58306;SDS011;44116;50.884;4.768;2023-05-10T00:36:21;9.8;;;5.9;;
58306;SDS011;44116;50.884;4.768;2023-05-10T00:38:21;12.9;;;6.2;;
58306;SDS011;44116;50.884;4.768;2023-05-10T00:42:21;11.2;;;5.8;;
58306;SDS011;44116;50.884;4.768;2023-05-10T00:44:20;11.5;;;6.0;;
58306;SDS011;44116;50.884;4.768;2023-05-10T00:46:21;10.8;;;6.2;;
58306;SDS011;44116;50.884;4.768;2023-05-10T00:50:20;12.6;;;6.1;;
58306;SDS011;44116;50.884;4.768;2023-05-10T00:52:20;16.8;;;6.6;;
58306;SDS011;44116;50.884;4.768;2023-05-10T00:54:19;11.4;;;6.9;;
58306;SDS011;44116;50.884;4.768;2023-05-10T00:56:19;12.3;;;7.3;;
58306;SDS011;44116;50.884;4.768;2023-05-10T00:58:19;14.1;;;6.9;;
58306;SDS011;44116;50.884;4.768;2023-05-10T01:02:19;11.8;;;7.0;;
58306;SDS011;44116;50.884;4.768;2023-05-10T01:04:18;14.4;;;6.9;;
58306;SDS011;44116;50.884;4.768;2023-05-10T01:06:18;11.1;;;6.7;;
58306;SDS011;44116;50.884;4.768;2023-05-10T01:08:18;14.2;;;7.0;;
58306;SDS011;44116;50.884;4.768;2023-05-10T01:10:18;13.2;;;6.5;;
58306;SDS011;44116;50.884;4.768;2023-05-10T01:12:18;12.4;;;6.9;;
58306;SDS011;44116;50.884;4.768;2023-05-10T01:14:18;14.5;;;6.8;;
58306;SDS011;44116;50.884;4.768;2023-05-10T01:16:17;12.7;;;7.4;;
58306;SDS011;44116;50.884;4.768;2023-05-10T01:18:20;13.2;;;6.9;;
58306;SDS011;44116;50.884;4.768;2023-05-10T01:20:17;13.6;;;7.1;;
58306;SDS011;44116;50.884;4.768;2023-05-10T01:22:33;13.8;;;7.9;;
58306;SDS011;44116;50.884;4.768;2023-05-10T01:24:34;13.9;;;7.6;;
58306;SDS011;44116;50.884;4.768;2023-05-10T01:26:26;17.8;;;7.7;;
58306;SDS011;44116;50.884;4.768;2023-05-10T01:28:32;14.8;;;7.2;;
58306;SDS011;44116;50.884;4.768;2023-05-10T01:30:33;16.4;;;7.9;;
58306;SDS011;44116;50.884;4.768;2023-05-10T01:32:21;13.7;;;7.4;;
58306;SDS011;44116;50.884;4.768;2023-05-10T01:34:18;14.0;;;7.3;;
58306;SDS011;44116;50.884;4.768;2023-05-10T01:36:20;16.6;;;8.4;;
58306;SDS011;44116;50.884;4.768;2023-05-10T01:38:17;15.4;;;7.9;;
58306;SDS011;44116;50.884;4.768;2023-05-10T01:40:21;13.7;;;7.3;;
58306;SDS011;44116;50.884;4.768;2023-05-10T01:42:18;13.8;;;7.8;;
58306;SDS011;44116;50.884;4.768;2023-05-10T01:46:16;13.5;;;7.3;;
58306;SDS011;44116;50.884;4.768;2023-05-10T01:48:14;13.4;;;7.7;;
58306;SDS011;44116;50.884;4.768;2023-05-10T01:50:15;15.3;;;8.0;;
58306;SDS011;44116;50.884;4.768;2023-05-10T01:52:16;14.7;;;7.4;;
58306;SDS011;44116;50.884;4.768;2023-05-10T01:54:15;14.9;;;7.9;;
58306;SDS011;44116;50.884;4.768;2023-05-10T01:56:13;15.3;;;8.2;;
58306;SDS011;44116;50.884;4.768;2023-05-10T01:58:15;15.6;;;8.4;;
58306;SDS011;44116;50.884;4.768;2023-05-10T02:00:14;17.9;;;8.2;;
58306;SDS011;44116;50.884;4.768;2023-05-10T02:02:14;16.6;;;8.3;;
58306;SDS011;44116;50.884;4.768;2023-05-10T02:04:15;16.4;;;7.9;;
58306;SDS011;44116;50.884;4.768;2023-05-10T02:06:14;15.9;;;8.8;;
58306;SDS011;44116;50.884;4.768;2023-05-10T02:08:13;16.5;;;8.7;;
58306;SDS011;44116;50.884;4.768;2023-05-10T02:10:12;19.3;;;9.3;;
58306;SDS011;44116;50.884;4.768;2023-05-10T02:12:13;15.2;;;8.4;;
58306;SDS011;44116;50.884;4.768;2023-05-10T02:14:12;13.4;;;7.6;;
58306;SDS011;44116;50.884;4.768;2023-05-10T02:16:12;19.2;;;9.5;;
58306;SDS011;44116;50.884;4.768;2023-05-10T02:18:12;16.1;;;8.8;;
58306;SDS011;44116;50.884;4.768;2023-05-10T02:20:11;15.4;;;8.9;;
58306;SDS011;44116;50.884;4.768;2023-05-10T02:22:11;14.4;;;9.2;;
58306;SDS011;44116;50.884;4.768;2023-05-10T02:24:11;17.4;;;9.5;;
58306;SDS011;44116;50.884;4.768;2023-05-10T02:26:11;13.1;;;9.0;;
58306;SDS011;44116;50.884;4.768;2023-05-10T02:28:11;18.6;;;10.2;;
58306;SDS011;44116;50.884;4.768;2023-05-10T02:30:10;15.1;;;9.4;;
58306;SDS011;44116;50.884;4.768;2023-05-10T02:32:09;17.7;;;9.8;;
58306;SDS011;44116;50.884;4.768;2023-05-10T02:34:10;20.8;;;9.7;;
58306;SDS011;44116;50.884;4.768;2023-05-10T02:36:09;14.4;;;8.9;;
58306;SDS011;44116;50.884;4.768;2023-05-10T02:38:10;16.6;;;9.8;;
58306;SDS011;44116;50.884;4.768;2023-05-10T02:40:10;14.6;;;9.9;;
58306;SDS011;44116;50.884;4.768;2023-05-10T02:44:09;17.5;;;10.2;;
58306;SDS011;44116;50.884;4.768;2023-05-10T02:46:08;18.1;;;9.3;;
58306;SDS011;44116;50.884;4.768;2023-05-10T02:48:07;16.5;;;10.0;;
58306;SDS011;44116;50.884;4.768;2023-05-10T02:50:08;17.3;;;9.8;;
58306;SDS011;44116;50.884;4.768;2023-05-10T02:52:08;16.0;;;9.6;;
58306;SDS011;44116;50.884;4.768;2023-05-10T02:54:10;17.4;;;9.9;;
58306;SDS011;44116;50.884;4.768;2023-05-10T02:56:12;17.6;;;10.2;;
58306;SDS011;44116;50.884;4.768;2023-05-10T02:58:06;17.5;;;10.1;;
58306;SDS011;44116;50.884;4.768;2023-05-10T03:00:07;14.7;;;10.3;;
58306;SDS011;44116;50.884;4.768;2023-05-10T03:02:06;17.5;;;10.5;;
58306;SDS011;44116;50.884;4.768;2023-05-10T03:04:06;14.9;;;9.8;;
58306;SDS011;44116;50.884;4.768;2023-05-10T03:06:06;19.4;;;10.2;;
58306;SDS011;44116;50.884;4.768;2023-05-10T03:08:06;15.4;;;9.3;;
58306;SDS011;44116;50.884;4.768;2023-05-10T03:10:06;14.4;;;9.2;;
58306;SDS011;44116;50.884;4.768;2023-05-10T03:12:10;16.5;;;9.5;;
58306;SDS011;44116;50.884;4.768;2023-05-10T03:14:13;14.4;;;9.1;;
58306;SDS011;44116;50.884;4.768;2023-05-10T03:16:08;16.7;;;10.2;;
58306;SDS011;44116;50.884;4.768;2023-05-10T03:20:09;14.9;;;9.9;;
58306;SDS011;44116;50.884;4.768;2023-05-10T03:22:09;16.5;;;9.3;;
58306;SDS011;44116;50.884;4.768;2023-05-10T03:24:07;19.8;;;9.6;;
58306;SDS011;44116;50.884;4.768;2023-05-10T03:26:04;18.0;;;10.1;;
58306;SDS011;44116;50.884;4.768;2023-05-10T03:28:04;15.8;;;10.2;;
58306;SDS011;44116;50.884;4.768;2023-05-10T03:30:04;17.3;;;9.2;;
58306;SDS011;44116;50.884;4.768;2023-05-10T03:32:03;15.5;;;9.6;;
58306;SDS011;44116;50.884;4.768;2023-05-10T03:34:03;21.1;;;10.2;;
58306;SDS011;44116;50.884;4.768;2023-05-10T03:38:02;17.6;;;9.8;;
58306;SDS011;44116;50.884;4.768;2023-05-10T03:40:02;14.8;;;9.2;;
58306;SDS011;44116;50.884;4.768;2023-05-10T03:42:02;16.6;;;9.3;;
58306;SDS011;44116;50.884;4.768;2023-05-10T03:44:02;14.1;;;9.0;;
58306;SDS011;44116;50.884;4.768;2023-05-10T03:46:02;16.6;;;9.4;;
58306;SDS011;44116;50.884;4.768;2023-05-10T03:48:01;14.7;;;9.2;;
58306;SDS011;44116;50.884;4.768;2023-05-10T03:50:01;16.7;;;9.5;;
58306;SDS011;44116;50.884;4.768;2023-05-10T03:52:01;16.9;;;9.6;;
58306;SDS011;44116;50.884;4.768;2023-05-10T03:54:01;19.1;;;8.9;;
58306;SDS011;44116;50.884;4.768;2023-05-10T03:56:00;14.7;;;8.6;;
58306;SDS011;44116;50.884;4.768;2023-05-10T03:58:00;12.9;;;7.7;;
58306;SDS011;44116;50.884;4.768;2023-05-10T04:00:00;14.2;;;7.5;;
58306;SDS011;44116;50.884;4.768;2023-05-10T04:02:00;10.0;;;6.6;;
58306;SDS011;44116;50.884;4.768;2023-05-10T04:04:00;14.4;;;7.3;;
58306;SDS011;44116;50.884;4.768;2023-05-10T04:06:00;12.4;;;7.4;;
58306;SDS011;44116;50.884;4.768;2023-05-10T04:07:59;15.2;;;7.1;;
58306;SDS011;44116;50.884;4.768;2023-05-10T04:09:59;11.7;;;7.5;;
58306;SDS011;44116;50.884;4.768;2023-05-10T04:13:58;14.0;;;7.7;;
58306;SDS011;44116;50.884;4.768;2023-05-10T04:15:58;14.9;;;8.8;;
58306;SDS011;44116;50.884;4.768;2023-05-10T04:17:58;19.9;;;10.1;;
58306;SDS011;44116;50.884;4.768;2023-05-10T04:19:58;18.5;;;10.5;;
58306;SDS011;44116;50.884;4.768;2023-05-10T04:21:58;16.5;;;10.6;;
58306;SDS011;44116;50.884;4.768;2023-05-10T04:23:58;16.5;;;10.5;;
58306;SDS011;44116;50.884;4.768;2023-05-10T04:25:59;17.8;;;11.8;;
58306;SDS011;44116;50.884;4.768;2023-05-10T04:27:57;19.7;;;11.9;;
58306;SDS011;44116;50.884;4.768;2023-05-10T04:31:57;19.2;;;12.3;;
58306;SDS011;44116;50.884;4.768;2023-05-10T04:33:56;19.2;;;12.8;;
58306;SDS011;44116;50.884;4.768;2023-05-10T04:35:56;20.3;;;12.4;;
58306;SDS011;44116;50.884;4.768;2023-05-10T04:37:56;19.3;;;12.0;;
58306;SDS011;44116;50.884;4.768;2023-05-10T04:39:56;19.5;;;12.4;;
58306;SDS011;44116;50.884;4.768;2023-05-10T04:41:56;20.5;;;12.7;;
58306;SDS011;44116;50.884;4.768;2023-05-10T04:43:56;18.7;;;11.7;;
58306;SDS011;44116;50.884;4.768;2023-05-10T04:45:56;21.8;;;12.6;;
58306;SDS011;44116;50.884;4.768;2023-05-10T04:47:55;20.7;;;12.4;;
58306;SDS011;44116;50.884;4.768;2023-05-10T04:51:55;20.2;;;12.6;;
58306;SDS011;44116;50.884;4.768;2023-05-10T04:53:54;23.9;;;14.1;;
58306;SDS011;44116;50.884;4.768;2023-05-10T04:55:54;21.1;;;13.6;;
58306;SDS011;44116;50.884;4.768;2023-05-10T04:57:54;24.1;;;14.6;;
58306;SDS011;44116;50.884;4.768;2023-05-10T04:59:54;22.7;;;14.8;;
58306;SDS011;44116;50.884;4.768;2023-05-10T05:01:53;23.4;;;14.0;;
58306;SDS011;44116;50.884;4.768;2023-05-10T05:03:53;22.6;;;14.4;;
58306;SDS011;44116;50.884;4.768;2023-05-10T05:05:53;23.7;;;15.2;;
58306;SDS011;44116;50.884;4.768;2023-05-10T05:07:53;22.5;;;14.1;;
58306;SDS011;44116;50.884;4.768;2023-05-10T05:09:53;23.1;;;14.2;;
58306;SDS011;44116;50.884;4.768;2023-05-10T05:11:53;23.0;;;14.1;;
58306;SDS011;44116;50.884;4.768;2023-05-10T05:13:52;23.0;;;14.2;;
58306;SDS011;44116;50.884;4.768;2023-05-10T05:15:52;25.9;;;15.2;;
58306;SDS011;44116;50.884;4.768;2023-05-10T05:17:52;24.0;;;16.0;;
58306;SDS011;44116;50.884;4.768;2023-05-10T05:19:52;24.6;;;15.6;;
58306;SDS011;44116;50.884;4.768;2023-05-10T05:21:51;23.8;;;15.8;;
58306;SDS011;44116;50.884;4.768;2023-05-10T05:23:51;25.0;;;15.3;;
58306;SDS011;44116;50.884;4.768;2023-05-10T05:25:51;24.7;;;15.8;;
58306;SDS011;44116;50.884;4.768;2023-05-10T05:27:51;26.3;;;15.5;;
58306;SDS011;44116;50.884;4.768;2023-05-10T05:29:52;27.8;;;16.3;;
58306;SDS011;44116;50.884;4.768;2023-05-10T05:31:50;25.8;;;15.4;;
58306;SDS011;44116;50.884;4.768;2023-05-10T05:33:50;24.8;;;16.1;;
58306;SDS011;44116;50.884;4.768;2023-05-10T05:37:50;23.9;;;16.0;;
58306;SDS011;44116;50.884;4.768;2023-05-10T05:39:50;26.2;;;16.7;;
58306;SDS011;44116;50.884;4.768;2023-05-10T05:41:49;25.0;;;15.3;;
58306;SDS011;44116;50.884;4.768;2023-05-10T05:43:49;26.6;;;16.0;;
58306;SDS011;44116;50.884;4.768;2023-05-10T05:45:49;24.8;;;15.7;;
58306;SDS011;44116;50.884;4.768;2023-05-10T05:49:49;25.6;;;16.4;;
58306;SDS011;44116;50.884;4.768;2023-05-10T05:51:48;25.7;;;16.0;;
58306;SDS011;44116;50.884;4.768;2023-05-10T05:53:48;26.7;;;17.2;;
58306;SDS011;44116;50.884;4.768;2023-05-10T05:55:51;25.1;;;15.1;;
58306;SDS011;44116;50.884;4.768;2023-05-10T05:57:48;26.8;;;16.1;;
58306;SDS011;44116;50.884;4.768;2023-05-10T06:01:47;26.0;;;15.4;;
58306;SDS011;44116;50.884;4.768;2023-05-10T06:03:47;23.5;;;14.9;;
58306;SDS011;44116;50.884;4.768;2023-05-10T06:05:47;26.7;;;15.5;;
58306;SDS011;44116;50.884;4.768;2023-05-10T06:07:47;23.7;;;15.0;;
58306;SDS011;44116;50.884;4.768;2023-05-10T06:09:47;26.4;;;16.5;;
58306;SDS011;44116;50.884;4.768;2023-05-10T06:11:46;25.3;;;15.1;;
58306;SDS011;44116;50.884;4.768;2023-05-10T06:13:46;23.1;;;15.3;;
58306;SDS011;44116;50.884;4.768;2023-05-10T06:15:46;23.7;;;15.2;;
58306;SDS011;44116;50.884;4.768;2023-05-10T06:17:46;25.4;;;15.5;;
58306;SDS011;44116;50.884;4.768;2023-05-10T06:19:45;25.1;;;15.4;;
58306;SDS011;44116;50.884;4.768;2023-05-10T06:21:45;24.0;;;15.1;;
58306;SDS011;44116;50.884;4.768;2023-05-10T06:23:45;26.9;;;15.5;;
58306;SDS011;44116;50.884;4.768;2023-05-10T06:25:45;25.4;;;15.9;;
58306;SDS011;44116;50.884;4.768;2023-05-10T06:27:45;24.9;;;14.9;;
58306;SDS011;44116;50.884;4.768;2023-05-10T06:29:44;28.3;;;16.5;;
58306;SDS011;44116;50.884;4.768;2023-05-10T06:31:44;23.6;;;15.3;;
58306;SDS011;44116;50.884;4.768;2023-05-10T06:33:44;22.3;;;14.3;;
58306;SDS011;44116;50.884;4.768;2023-05-10T06:35:44;24.4;;;15.5;;
58306;SDS011;44116;50.884;4.768;2023-05-10T06:37:43;22.9;;;14.6;;
58306;SDS011;44116;50.884;4.768;2023-05-10T06:39:43;24.9;;;15.7;;
58306;SDS011;44116;50.884;4.768;2023-05-10T06:41:43;26.7;;;16.0;;
58306;SDS011;44116;50.884;4.768;2023-05-10T06:43:43;28.1;;;16.7;;
58306;SDS011;44116;50.884;4.768;2023-05-10T06:47:43;24.5;;;16.1;;
58306;SDS011;44116;50.884;4.768;2023-05-10T06:49:42;25.5;;;15.9;;
58306;SDS011;44116;50.884;4.768;2023-05-10T06:51:42;25.3;;;16.0;;
58306;SDS011;44116;50.884;4.768;2023-05-10T06:53:42;27.5;;;16.5;;
58306;SDS011;44116;50.884;4.768;2023-05-10T06:55:42;23.4;;;15.1;;
58306;SDS011;44116;50.884;4.768;2023-05-10T06:57:41;26.3;;;16.5;;
58306;SDS011;44116;50.884;4.768;2023-05-10T06:59:41;26.5;;;16.4;;
58306;SDS011;44116;50.884;4.768;2023-05-10T07:01:41;27.5;;;16.2;;
58306;SDS011;44116;50.884;4.768;2023-05-10T07:03:41;26.1;;;16.1;;
58306;SDS011;44116;50.884;4.768;2023-05-10T07:05:41;23.9;;;15.7;;
58306;SDS011;44116;50.884;4.768;2023-05-10T07:07:40;22.5;;;15.0;;
58306;SDS011;44116;50.884;4.768;2023-05-10T07:09:40;21.7;;;14.3;;
58306;SDS011;44116;50.884;4.768;2023-05-10T07:11:40;18.8;;;11.7;;
58306;SDS011;44116;50.884;4.768;2023-05-10T07:13:40;16.0;;;10.2;;
58306;SDS011;44116;50.884;4.768;2023-05-10T07:15:39;13.0;;;8.7;;
58306;SDS011;44116;50.884;4.768;2023-05-10T07:17:39;13.6;;;8.4;;
58306;SDS011;44116;50.884;4.768;2023-05-10T07:19:39;10.8;;;7.3;;
58306;SDS011;44116;50.884;4.768;2023-05-10T07:21:39;12.1;;;6.7;;
58306;SDS011;44116;50.884;4.768;2023-05-10T07:23:39;9.6;;;6.6;;
58306;SDS011;44116;50.884;4.768;2023-05-10T07:25:38;9.8;;;6.2;;
58306;SDS011;44116;50.884;4.768;2023-05-10T07:27:38;9.5;;;5.9;;
58306;SDS011;44116;50.884;4.768;2023-05-10T07:31:38;9.1;;;6.2;;
58306;SDS011;44116;50.884;4.768;2023-05-10T07:33:38;11.1;;;6.5;;
58306;SDS011;44116;50.884;4.768;2023-05-10T07:35:37;10.9;;;6.4;;
58306;SDS011;44116;50.884;4.768;2023-05-10T07:37:37;13.2;;;6.3;;
58306;SDS011;44116;50.884;4.768;2023-05-10T07:39:37;11.2;;;6.4;;
58306;SDS011;44116;50.884;4.768;2023-05-10T07:41:37;12.7;;;6.5;;
58306;SDS011;44116;50.884;4.768;2023-05-10T07:43:37;11.9;;;6.1;;
58306;SDS011;44116;50.884;4.768;2023-05-10T07:45:36;10.7;;;6.2;;
58306;SDS011;44116;50.884;4.768;2023-05-10T07:47:36;10.9;;;6.1;;
58306;SDS011;44116;50.884;4.768;2023-05-10T07:49:36;9.5;;;5.7;;
58306;SDS011;44116;50.884;4.768;2023-05-10T07:51:36;10.7;;;5.2;;
58306;SDS011;44116;50.884;4.768;2023-05-10T07:53:36;11.0;;;5.8;;
58306;SDS011;44116;50.884;4.768;2023-05-10T07:55:35;8.1;;;5.1;;
58306;SDS011;44116;50.884;4.768;2023-05-10T07:57:35;9.0;;;4.7;;
58306;SDS011;44116;50.884;4.768;2023-05-10T07:59:35;9.1;;;4.5;;
58306;SDS011;44116;50.884;4.768;2023-05-10T08:01:35;6.4;;;3.7;;
58306;SDS011;44116;50.884;4.768;2023-05-10T08:03:34;6.7;;;3.6;;
58306;SDS011;44116;50.884;4.768;2023-05-10T08:07:34;5.9;;;3.3;;
58306;SDS011;44116;50.884;4.768;2023-05-10T08:09:34;5.2;;;3.0;;
58306;SDS011;44116;50.884;4.768;2023-05-10T08:11:34;8.2;;;4.9;;
58306;SDS011;44116;50.884;4.768;2023-05-10T08:13:34;7.6;;;4.7;;
58306;SDS011;44116;50.884;4.768;2023-05-10T08:15:33;11.8;;;6.8;;
58306;SDS011;44116;50.884;4.768;2023-05-10T08:17:33;11.7;;;5.5;;
58306;SDS011;44116;50.884;4.768;2023-05-10T08:19:33;9.7;;;5.7;;
58306;SDS011;44116;50.884;4.768;2023-05-10T08:21:33;11.8;;;7.1;;
58306;SDS011;44116;50.884;4.768;2023-05-10T08:23:33;11.8;;;6.9;;
58306;SDS011;44116;50.884;4.768;2023-05-10T08:25:32;13.0;;;7.5;;
58306;SDS011;44116;50.884;4.768;2023-05-10T08:27:32;12.4;;;6.8;;
58306;SDS011;44116;50.884;4.768;2023-05-10T08:29:32;13.3;;;7.9;;
58306;SDS011;44116;50.884;4.768;2023-05-10T08:31:32;13.7;;;7.8;;
58306;SDS011;44116;50.884;4.768;2023-05-10T08:33:31;12.5;;;7.5;;
58306;SDS011;44116;50.884;4.768;2023-05-10T08:35:31;14.8;;;8.6;;
58306;SDS011;44116;50.884;4.768;2023-05-10T08:37:31;17.6;;;8.8;;
58306;SDS011;44116;50.884;4.768;2023-05-10T08:39:33;14.2;;;7.9;;
58306;SDS011;44116;50.884;4.768;2023-05-10T08:41:33;14.5;;;9.0;;
58306;SDS011;44116;50.884;4.768;2023-05-10T08:43:31;15.1;;;8.7;;
58306;SDS011;44116;50.884;4.768;2023-05-10T08:47:30;16.9;;;9.3;;
58306;SDS011;44116;50.884;4.768;2023-05-10T08:49:31;16.0;;;8.5;;
58306;SDS011;44116;50.884;4.768;2023-05-10T08:51:34;14.5;;;8.7;;
58306;SDS011;44116;50.884;4.768;2023-05-10T08:53:30;15.2;;;8.3;;
58306;SDS011;44116;50.884;4.768;2023-05-10T08:55:29;15.3;;;8.0;;
58306;SDS011;44116;50.884;4.768;2023-05-10T08:57:29;15.4;;;8.6;;
58306;SDS011;44116;50.884;4.768;2023-05-10T08:59:29;12.8;;;7.8;;
58306;SDS011;44116;50.884;4.768;2023-05-10T09:01:31;14.8;;;8.2;;
58306;SDS011;44116;50.884;4.768;2023-05-10T09:03:29;13.3;;;8.3;;
58306;SDS011;44116;50.884;4.768;2023-05-10T09:05:28;12.1;;;7.7;;
58306;SDS011;44116;50.884;4.768;2023-05-10T09:07:28;13.1;;;7.6;;
58306;SDS011;44116;50.884;4.768;2023-05-10T09:09:28;14.8;;;8.2;;
58306;SDS011;44116;50.884;4.768;2023-05-10T09:11:28;12.9;;;7.9;;
58306;SDS011;44116;50.884;4.768;2023-05-10T09:13:28;11.9;;;7.4;;
58306;SDS011;44116;50.884;4.768;2023-05-10T09:15:27;12.7;;;7.0;;
58306;SDS011;44116;50.884;4.768;2023-05-10T09:17:28;12.9;;;7.1;;
58306;SDS011;44116;50.884;4.768;2023-05-10T09:19:27;11.6;;;7.0;;
58306;SDS011;44116;50.884;4.768;2023-05-10T09:21:27;12.1;;;7.1;;
58306;SDS011;44116;50.884;4.768;2023-05-10T09:23:26;11.4;;;6.5;;
58306;SDS011;44116;50.884;4.768;2023-05-10T09:25:26;11.0;;;6.3;;
58306;SDS011;44116;50.884;4.768;2023-05-10T09:27:26;11.2;;;6.2;;
58306;SDS011;44116;50.884;4.768;2023-05-10T09:29:26;10.6;;;6.4;;
58306;SDS011;44116;50.884;4.768;2023-05-10T09:31:43;13.6;;;6.5;;
58306;SDS011;44116;50.884;4.768;2023-05-10T09:33:25;10.8;;;6.3;;
58306;SDS011;44116;50.884;4.768;2023-05-10T09:35:27;8.3;;;6.1;;
58306;SDS011;44116;50.884;4.768;2023-05-10T09:37:29;9.6;;;5.8;;
58306;SDS011;44116;50.884;4.768;2023-05-10T09:39:32;12.0;;;6.2;;
58306;SDS011;44116;50.884;4.768;2023-05-10T09:41:25;11.8;;;6.1;;
58306;SDS011;44116;50.884;4.768;2023-05-10T09:43:24;7.5;;;5.2;;
58306;SDS011;44116;50.884;4.768;2023-05-10T09:45:26;8.9;;;5.1;;
58306;SDS011;44116;50.884;4.768;2023-05-10T09:49:24;9.4;;;5.4;;
58306;SDS011;44116;50.884;4.768;2023-05-10T09:51:24;8.5;;;4.5;;
58306;SDS011;44116;50.884;4.768;2023-05-10T09:53:23;7.4;;;4.4;;
58306;SDS011;44116;50.884;4.768;2023-05-10T09:55:25;7.4;;;4.2;;
58306;SDS011;44116;50.884;4.768;2023-05-10T09:57:24;7.2;;;4.3;;
58306;SDS011;44116;50.884;4.768;2023-05-10T10:03:22;7.4;;;4.0;;
58306;SDS011;44116;50.884;4.768;2023-05-10T10:05:28;6.6;;;3.6;;
58306;SDS011;44116;50.884;4.768;2023-05-10T10:07:23;6.1;;;3.7;;
58306;SDS011;44116;50.884;4.768;2023-05-10T10:09:22;7.0;;;3.4;;
58306;SDS011;44116;50.884;4.768;2023-05-10T10:11:23;7.0;;;3.5;;
58306;SDS011;44116;50.884;4.768;2023-05-10T10:13:21;8.3;;;3.7;;
58306;SDS011;44116;50.884;4.768;2023-05-10T10:15:22;5.4;;;3.3;;
58306;SDS011;44116;50.884;4.768;2023-05-10T10:19:21;4.4;;;3.1;;
58306;SDS011;44116;50.884;4.768;2023-05-10T10:21:21;4.2;;;2.8;;
58306;SDS011;44116;50.884;4.768;2023-05-10T10:23:20;3.9;;;2.2;;
58306;SDS011;44116;50.884;4.768;2023-05-10T10:25:20;4.2;;;2.6;;
58306;SDS011;44116;50.884;4.768;2023-05-10T10:29:23;4.8;;;2.7;;
58306;SDS011;44116;50.884;4.768;2023-05-10T10:33:33;4.6;;;2.4;;
58306;SDS011;44116;50.884;4.768;2023-05-10T10:37:19;5.7;;;2.7;;
58306;SDS011;44116;50.884;4.768;2023-05-10T10:39:19;3.8;;;2.6;;
58306;SDS011;44116;50.884;4.768;2023-05-10T10:41:28;4.2;;;2.2;;
58306;SDS011;44116;50.884;4.768;2023-05-10T10:43:22;3.5;;;2.1;;
58306;SDS011;44116;50.884;4.768;2023-05-10T10:45:18;4.3;;;2.3;;
58306;SDS011;44116;50.884;4.768;2023-05-10T10:47:22;4.1;;;2.8;;
58306;SDS011;44116;50.884;4.768;2023-05-10T10:49:17;4.5;;;2.5;;
58306;SDS011;44116;50.884;4.768;2023-05-10T10:51:17;3.8;;;1.9;;
58306;SDS011;44116;50.884;4.768;2023-05-10T10:53:17;4.1;;;2.1;;
58306;SDS011;44116;50.884;4.768;2023-05-10T10:55:18;3.2;;;1.9;;
58306;SDS011;44116;50.884;4.768;2023-05-10T11:05:25;3.2;;;1.6;;
58306;SDS011;44116;50.884;4.768;2023-05-10T11:07:16;3.0;;;1.7;;
58306;SDS011;44116;50.884;4.768;2023-05-10T11:09:15;3.4;;;1.8;;
58306;SDS011;44116;50.884;4.768;2023-05-10T11:11:15;3.8;;;2.0;;
58306;SDS011;44116;50.884;4.768;2023-05-10T11:13:15;3.1;;;1.7;;
58306;SDS011;44116;50.884;4.768;2023-05-10T11:15:15;3.3;;;1.9;;
58306;SDS011;44116;50.884;4.768;2023-05-10T11:17:23;3.3;;;1.8;;
58306;SDS011;44116;50.884;4.768;2023-05-10T11:19:16;3.0;;;1.7;;
58306;SDS011;44116;50.884;4.768;2023-05-10T11:21:15;3.5;;;1.6;;
58306;SDS011;44116;50.884;4.768;2023-05-10T11:23:14;2.6;;;1.7;;
58306;SDS011;44116;50.884;4.768;2023-05-10T11:25:14;3.9;;;1.5;;
58306;SDS011;44116;50.884;4.768;2023-05-10T11:27:14;1.9;;;1.2;;
58306;SDS011;44116;50.884;4.768;2023-05-10T11:29:14;1.7;;;1.4;;
58306;SDS011;44116;50.884;4.768;2023-05-10T11:31:14;1.5;;;1.3;;
58306;SDS011;44116;50.884;4.768;2023-05-10T11:33:15;2.1;;;1.2;;
58306;SDS011;44116;50.884;4.768;2023-05-10T11:37:13;3.0;;;1.4;;
58306;SDS011;44116;50.884;4.768;2023-05-10T11:39:13;3.0;;;1.2;;
58306;SDS011;44116;50.884;4.768;2023-05-10T11:43:13;1.9;;;1.3;;
58306;SDS011;44116;50.884;4.768;2023-05-10T11:45:12;3.2;;;1.4;;
58306;SDS011;44116;50.884;4.768;2023-05-10T11:47:12;2.3;;;1.2;;
58306;SDS011;44116;50.884;4.768;2023-05-10T11:49:12;1.3;;;1.0;;
58306;SDS011;44116;50.884;4.768;2023-05-10T11:51:12;2.7;;;1.2;;
58306;SDS011;44116;50.884;4.768;2023-05-10T11:57:12;2.8;;;1.1;;
58306;SDS011;44116;50.884;4.768;2023-05-10T11:59:14;2.1;;;1.3;;
58306;SDS011;44116;50.884;4.768;2023-05-10T12:01:11;1.7;;;1.2;;
58306;SDS011;44116;50.884;4.768;2023-05-10T12:05:11;2.6;;;1.4;;
58306;SDS011;44116;50.884;4.768;2023-05-10T12:07:11;2.1;;;1.5;;
58306;SDS011;44116;50.884;4.768;2023-05-10T12:15:11;2.5;;;1.4;;
58306;SDS011;44116;50.884;4.768;2023-05-10T12:17:11;2.2;;;1.6;;
58306;SDS011;44116;50.884;4.768;2023-05-10T12:19:10;3.8;;;1.7;;
58306;SDS011;44116;50.884;4.768;2023-05-10T12:21:10;2.1;;;1.9;;
58306;SDS011;44116;50.884;4.768;2023-05-10T12:27:09;3.0;;;2.0;;
58306;SDS011;44116;50.884;4.768;2023-05-10T12:29:13;2.3;;;1.9;;
58306;SDS011;44116;50.884;4.768;2023-05-10T12:31:09;4.9;;;1.8;;
58306;SDS011;44116;50.884;4.768;2023-05-10T12:33:09;3.8;;;2.2;;
58306;SDS011;44116;50.884;4.768;2023-05-10T12:35:08;2.8;;;1.8;;
58306;SDS011;44116;50.884;4.768;2023-05-10T12:37:08;3.8;;;2.0;;
58306;SDS011;44116;50.884;4.768;2023-05-10T12:39:08;3.3;;;2.5;;
58306;SDS011;44116;50.884;4.768;2023-05-10T12:41:10;3.5;;;2.0;;
58306;SDS011;44116;50.884;4.768;2023-05-10T12:43:08;3.7;;;2.4;;
58306;SDS011;44116;50.884;4.768;2023-05-10T12:45:08;3.0;;;2.1;;
58306;SDS011;44116;50.884;4.768;2023-05-10T12:47:08;3.9;;;2.2;;
58306;SDS011;44116;50.884;4.768;2023-05-10T12:49:07;2.8;;;2.1;;
58306;SDS011;44116;50.884;4.768;2023-05-10T12:51:08;2.9;;;2.2;;
58306;SDS011;44116;50.884;4.768;2023-05-10T12:53:07;2.7;;;2.1;;
58306;SDS011;44116;50.884;4.768;2023-05-10T12:55:07;4.0;;;2.5;;
58306;SDS011;44116;50.884;4.768;2023-05-10T12:57:07;3.1;;;2.2;;
58306;SDS011;44116;50.884;4.768;2023-05-10T12:59:07;3.1;;;2.3;;
58306;SDS011;44116;50.884;4.768;2023-05-10T13:03:06;4.8;;;2.4;;
58306;SDS011;44116;50.884;4.768;2023-05-10T13:05:07;5.6;;;2.2;;
58306;SDS011;44116;50.884;4.768;2023-05-10T13:07:06;2.7;;;1.7;;
58306;SDS011;44116;50.884;4.768;2023-05-10T13:09:06;3.0;;;1.8;;
58306;SDS011;44116;50.884;4.768;2023-05-10T13:11:07;3.7;;;1.9;;
58306;SDS011;44116;50.884;4.768;2023-05-10T13:13:06;3.0;;;1.8;;
58306;SDS011;44116;50.884;4.768;2023-05-10T13:15:07;2.9;;;1.9;;
58306;SDS011;44116;50.884;4.768;2023-05-10T13:17:06;2.3;;;1.8;;
58306;SDS011;44116;50.884;4.768;2023-05-10T13:19:05;2.8;;;2.0;;
58306;SDS011;44116;50.884;4.768;2023-05-10T13:21:05;1.8;;;1.6;;
58306;SDS011;44116;50.884;4.768;2023-05-10T13:23:05;3.9;;;1.7;;
58306;SDS011;44116;50.884;4.768;2023-05-10T13:25:05;2.0;;;1.5;;
58306;SDS011;44116;50.884;4.768;2023-05-10T13:29:05;2.2;;;1.8;;
58306;SDS011;44116;50.884;4.768;2023-05-10T13:31:05;2.4;;;1.5;;
58306;SDS011;44116;50.884;4.768;2023-05-10T13:33:04;2.7;;;1.7;;
58306;SDS011;44116;50.884;4.768;2023-05-10T13:35:06;2.2;;;1.5;;
58306;SDS011;44116;50.884;4.768;2023-05-10T13:37:04;2.6;;;1.7;;